Time;durP1;ratioP1;P1;durP2;ratioP2;P2;SDS_P1;SDS_P2;PMS_P1;PMS_P2;Temp;Humidity;BMP_temperature;BMP_pressure;BME280_temperature;BME280_humidity;BME280_pressure;Samples;Min_cycle;Max_cycle;Signal;HPM_P1;HPM_P2
2023/12/15 00:01:44;;;;;;;17.38;10.05;;;;;;;;;;4966108;28;98272;-72
2023/12/15 00:04:10;;;;;;;12.50;9.80;;;;;;;;;;4966239;28;98499;-71
2023/12/15 00:06:36;;;;;;;31.38;10.77;;;;;;;;;;4966824;28;100323;-72
2023/12/15 00:09:03;;;;;;;11.88;9.60;;;;;;;;;;4966793;28;98194;-72
2023/12/15 00:11:29;;;;;;;20.98;11.23;;;;;;;;;;4966627;28;99575;-71
2023/12/15 00:13:56;;;;;;;18.95;12.55;;;;;;;;;;4966591;28;99031;-72
2023/12/15 00:16:22;;;;;;;24.08;13.75;;;;;;;;;;4969869;28;98201;-72
2023/12/15 00:18:49;;;;;;;26.45;13.05;;;;;;;;;;4973457;28;99783;-73
2023/12/15 00:21:17;;;;;;;27.58;14.02;;;;;;;;;;4969503;28;98697;-72
2023/12/15 00:23:43;;;;;;;29.42;15.20;;;;;;;;;;4969901;28;98578;-72
2023/12/15 00:26:10;;;;;;;24.90;14.80;;;;;;;;;;4969590;28;99989;-72
2023/12/15 00:28:36;;;;;;;27.15;15.15;;;;;;;;;;4968365;28;98246;-72
2023/12/15 00:31:03;;;;;;;37.70;16.58;;;;;;;;;;4970163;28;99700;-72
2023/12/15 00:33:29;;;;;;;30.27;16.38;;;;;;;;;;4968400;28;99913;-72
2023/12/15 00:35:58;;;;;;;31.63;16.40;;;;;;;;;;4968909;28;98282;-72
2023/12/15 00:38:24;;;;;;;27.35;16.42;;;;;;;;;;4969582;28;98832;-72
2023/12/15 00:40:51;;;;;;;30.90;17.02;;;;;;;;;;4972933;28;99108;-72
2023/12/15 00:43:18;;;;;;;30.70;17.10;;;;;;;;;;4968835;28;98687;-72
2023/12/15 00:45:44;;;;;;;34.05;17.88;;;;;;;;;;4969871;28;100440;-72
2023/12/15 00:48:11;;;;;;;41.28;19.70;;;;;;;;;;4969294;28;98218;-73
2023/12/15 00:50:38;;;;;;;36.53;18.35;;;;;;;;;;4968193;28;100074;-73
2023/12/15 00:53:04;;;;;;;37.80;18.27;;;;;;;;;;4968201;28;99130;-72
2023/12/15 00:55:31;;;;;;;34.03;18.65;;;;;;;;;;4969334;28;98322;-71
2023/12/15 00:57:57;;;;;;;35.03;19.55;;;;;;;;;;4968368;28;100340;-72
2023/12/15 01:00:23;;;;;;;39.92;19.23;;;;;;;;;;4968733;28;99349;-72
2023/12/15 01:02:50;;;;;;;34.70;17.88;;;;;;;;;;4972011;28;98216;-72
2023/12/15 01:05:16;;;;;;;31.20;18.70;;;;;;;;;;4968489;28;99103;-72
2023/12/15 01:07:43;;;;;;;31.00;19.73;;;;;;;;;;4968857;28;98516;-71
2023/12/15 01:10:13;;;;;;;34.95;20.60;;;;;;;;;;4968415;28;99374;-72
2023/12/15 01:12:40;;;;;;;36.25;20.45;;;;;;;;;;4968780;28;100160;-71
2023/12/15 01:15:06;;;;;;;41.42;21.42;;;;;;;;;;4968942;28;98147;-71
2023/12/15 01:17:33;;;;;;;46.13;21.08;;;;;;;;;;4967715;28;98220;-72
2023/12/15 01:19:59;;;;;;;46.75;20.42;;;;;;;;;;4969347;28;99433;-72
2023/12/15 01:22:26;;;;;;;38.97;21.75;;;;;;;;;;4968799;28;98240;-72
2023/12/15 01:24:52;;;;;;;45.15;21.00;;;;;;;;;;4970431;28;99401;-72
2023/12/15 01:27:19;;;;;;;47.22;21.02;;;;;;;;;;4968844;28;98831;-73
2023/12/15 01:29:45;;;;;;;39.65;23.45;;;;;;;;;;4969176;28;99673;-72
2023/12/15 01:32:12;;;;;;;48.10;22.15;;;;;;;;;;4967658;28;99961;-72
2023/12/15 01:34:38;;;;;;;43.47;22.73;;;;;;;;;;4968997;28;98295;-72
2023/12/15 01:37:05;;;;;;;39.33;22.83;;;;;;;;;;4968768;28;98719;-71
2023/12/15 01:39:31;;;;;;;56.13;22.70;;;;;;;;;;4967512;28;99983;-72
2023/12/15 01:41:57;;;;;;;39.53;21.65;;;;;;;;;;4968025;28;98458;-72
2023/12/15 01:44:24;;;;;;;46.60;21.98;;;;;;;;;;4971565;28;99512;-71
2023/12/15 01:46:50;;;;;;;39.67;21.30;;;;;;;;;;4967986;28;98450;-72
2023/12/15 01:49:17;;;;;;;40.42;22.40;;;;;;;;;;4967966;28;99837;-72
2023/12/15 01:51:44;;;;;;;39.15;21.35;;;;;;;;;;4968391;28;100278;-72
2023/12/15 01:54:10;;;;;;;40.78;21.85;;;;;;;;;;4966984;28;98447;-71
2023/12/15 01:56:36;;;;;;;43.65;23.02;;;;;;;;;;4968400;28;99699;-73
2023/12/15 01:59:03;;;;;;;53.10;22.90;;;;;;;;;;4968198;28;99994;-72
2023/12/15 02:01:30;;;;;;;55.75;24.55;;;;;;;;;;4968412;28;98230;-72
2023/12/15 02:03:56;;;;;;;53.97;21.95;;;;;;;;;;4968120;28;98729;-72
2023/12/15 02:06:23;;;;;;;47.67;24.25;;;;;;;;;;4969689;28;100238;-72
2023/12/15 02:08:49;;;;;;;49.17;23.25;;;;;;;;;;4968411;28;99484;-72
2023/12/15 02:11:16;;;;;;;47.88;23.27;;;;;;;;;;4968236;28;98803;-72
2023/12/15 02:13:42;;;;;;;46.22;24.25;;;;;;;;;;4967951;28;98681;-72
2023/12/15 02:16:09;;;;;;;51.65;23.00;;;;;;;;;;4968202;28;99185;-72
2023/12/15 02:18:35;;;;;;;48.72;24.27;;;;;;;;;;4968013;28;99969;-71
2023/12/15 02:21:02;;;;;;;49.20;24.27;;;;;;;;;;4967659;28;98235;-72
2023/12/15 02:23:29;;;;;;;38.42;22.05;;;;;;;;;;4968191;28;98611;-71
2023/12/15 02:25:55;;;;;;;39.80;21.95;;;;;;;;;;4967556;28;99994;-72
2023/12/15 02:28:21;;;;;;;44.30;21.60;;;;;;;;;;4970421;28;98829;-72
2023/12/15 02:30:48;;;;;;;45.03;22.33;;;;;;;;;;4967117;28;99854;-71
2023/12/15 02:33:14;;;;;;;55.30;24.27;;;;;;;;;;4967485;28;98109;-71
2023/12/15 02:35:42;;;;;;;43.67;21.73;;;;;;;;;;4966722;28;99590;-72
2023/12/15 02:38:08;;;;;;;51.60;23.25;;;;;;;;;;4967588;28;100121;-72
2023/12/15 02:40:35;;;;;;;58.38;23.88;;;;;;;;;;4967899;28;98218;-71
2023/12/15 02:43:02;;;;;;;48.58;22.83;;;;;;;;;;4967203;28;99660;-72
2023/12/15 02:45:28;;;;;;;47.45;23.40;;;;;;;;;;4967437;28;98970;-72
2023/12/15 02:47:55;;;;;;;43.42;23.45;;;;;;;;;;4967932;28;98968;-71
2023/12/15 02:50:21;;;;;;;45.05;24.73;;;;;;;;;;4969662;28;99372;-71
2023/12/15 02:52:48;;;;;;;43.28;23.52;;;;;;;;;;4967472;28;98254;-72
2023/12/15 02:55:14;;;;;;;53.20;24.60;;;;;;;;;;4966276;28;98577;-71
2023/12/15 02:57:41;;;;;;;39.88;21.73;;;;;;;;;;4967138;28;98826;-72
2023/12/15 03:00:07;;;;;;;44.00;23.35;;;;;;;;;;4967334;28;98279;-71
2023/12/15 03:02:34;;;;;;;41.53;21.70;;;;;;;;;;4966816;28;99393;-71
2023/12/15 03:05:00;;;;;;;44.92;21.50;;;;;;;;;;4967200;28;100045;-72
2023/12/15 03:07:27;;;;;;;46.97;22.20;;;;;;;;;;4967431;28;98263;-72
2023/12/15 03:09:53;;;;;;;48.60;23.10;;;;;;;;;;4966872;28;100000;-72
2023/12/15 03:12:20;;;;;;;42.88;21.75;;;;;;;;;;4970149;28;100056;-72
2023/12/15 03:14:46;;;;;;;50.25;23.20;;;;;;;;;;4967308;28;99405;-71
2023/12/15 03:17:13;;;;;;;40.03;21.60;;;;;;;;;;4965973;28;99120;-73
2023/12/15 03:19:39;;;;;;;46.97;22.85;;;;;;;;;;4965911;28;98242;-72
2023/12/15 03:22:06;;;;;;;38.97;22.48;;;;;;;;;;4967165;28;99014;-72
2023/12/15 03:24:32;;;;;;;53.20;21.92;;;;;;;;;;4966346;28;100130;-72
2023/12/15 03:26:58;;;;;;;49.13;22.05;;;;;;;;;;4967187;28;98313;-73
2023/12/15 03:29:25;;;;;;;41.13;20.70;;;;;;;;;;4966797;28;98644;-73
2023/12/15 03:31:51;;;;;;;36.92;19.25;;;;;;;;;;4966220;28;99918;-73
2023/12/15 03:34:18;;;;;;;44.80;20.88;;;;;;;;;;4970292;28;98124;-72
2023/12/15 03:36:44;;;;;;;43.10;20.33;;;;;;;;;;4967167;28;100351;-72
2023/12/15 03:39:11;;;;;;;49.00;20.98;;;;;;;;;;4966183;28;98246;-73
2023/12/15 03:41:37;;;;;;;41.92;21.15;;;;;;;;;;4967118;28;98720;-71
2023/12/15 03:44:04;;;;;;;39.65;21.33;;;;;;;;;;4966413;28;99931;-71
2023/12/15 03:46:30;;;;;;;49.85;21.80;;;;;;;;;;4966135;28;98286;-72
2023/12/15 03:48:57;;;;;;;45.17;19.85;;;;;;;;;;4968869;28;99594;-72
2023/12/15 03:51:23;;;;;;;47.05;21.48;;;;;;;;;;4969916;28;100125;-71
2023/12/15 03:53:50;;;;;;;35.50;19.75;;;;;;;;;;4973002;28;98254;-71
2023/12/15 03:56:25;;;;;;;48.83;22.05;;;;;;;;;;4970224;28;100151;-72
2023/12/15 03:58:53;;;;;;;39.97;21.48;;;;;;;;;;4970022;28;98511;-72
2023/12/15 04:01:19;;;;;;;47.88;22.15;;;;;;;;;;4970492;28;99816;-72
2023/12/15 04:03:46;;;;;;;48.03;21.27;;;;;;;;;;4970916;28;99240;-72
2023/12/15 04:06:12;;;;;;;42.33;20.88;;;;;;;;;;4969534;28;98319;-71
2023/12/15 04:08:42;;;;;;;45.33;21.15;;;;;;;;;;4969747;28;98609;-72
2023/12/15 04:11:09;;;;;;;41.47;21.00;;;;;;;;;;4969867;28;99002;-73
2023/12/15 04:13:35;;;;;;;41.40;22.70;;;;;;;;;;4969683;28;98523;-72
2023/12/15 04:16:03;;;;;;;50.00;22.80;;;;;;;;;;4973328;28;100036;-73
2023/12/15 04:18:29;;;;;;;45.28;21.42;;;;;;;;;;4969834;28;98424;-71
2023/12/15 04:20:56;;;;;;;51.10;22.65;;;;;;;;;;4969329;28;99449;-72
2023/12/15 04:23:22;;;;;;;40.63;21.33;;;;;;;;;;4969777;28;99996;-72
2023/12/15 04:25:48;;;;;;;38.22;23.15;;;;;;;;;;4970384;28;98374;-72
2023/12/15 04:28:15;;;;;;;49.97;20.98;;;;;;;;;;4968896;28;99668;-72
2023/12/15 04:30:41;;;;;;;43.10;21.20;;;;;;;;;;4970025;28;100133;-71
2023/12/15 04:33:08;;;;;;;43.28;22.13;;;;;;;;;;4968697;28;98406;-72
2023/12/15 04:35:35;;;;;;;41.47;21.45;;;;;;;;;;4969429;28;99534;-72
2023/12/15 04:38:02;;;;;;;61.08;22.27;;;;;;;;;;4973383;28;99120;-71
2023/12/15 04:40:28;;;;;;;46.95;20.77;;;;;;;;;;4969884;28;98382;-72
2023/12/15 04:42:54;;;;;;;42.53;21.17;;;;;;;;;;4968498;28;99952;-71
2023/12/15 04:45:21;;;;;;;45.50;20.35;;;;;;;;;;4969363;28;98281;-72
2023/12/15 04:47:50;;;;;;;48.38;21.92;;;;;;;;;;4969600;28;99435;-72
2023/12/15 04:50:17;;;;;;;31.58;21.23;;;;;;;;;;4968500;28;99452;-71
2023/12/15 04:52:43;;;;;;;50.63;22.40;;;;;;;;;;4969261;28;98348;-71
2023/12/15 04:55:10;;;;;;;47.83;21.85;;;;;;;;;;4968436;28;99781;-72
2023/12/15 04:57:36;;;;;;;40.60;19.73;;;;;;;;;;4968961;28;99763;-72
2023/12/15 05:00:04;;;;;;;44.63;20.63;;;;;;;;;;4972061;28;98322;-72
2023/12/15 05:02:30;;;;;;;43.38;19.92;;;;;;;;;;4968570;28;99852;-73
2023/12/15 05:04:57;;;;;;;34.38;19.35;;;;;;;;;;4969778;28;98230;-72
2023/12/15 05:07:23;;;;;;;47.00;20.67;;;;;;;;;;4969590;28;99701;-73
2023/12/15 05:09:50;;;;;;;41.80;20.40;;;;;;;;;;4968823;28;99929;-72
2023/12/15 05:12:16;;;;;;;41.13;18.90;;;;;;;;;;4969112;28;98235;-72
2023/12/15 05:14:43;;;;;;;36.13;18.67;;;;;;;;;;4969306;28;99453;-71
2023/12/15 05:17:09;;;;;;;47.13;19.10;;;;;;;;;;4967949;28;99948;-72
2023/12/15 05:19:36;;;;;;;41.47;19.75;;;;;;;;;;4969054;28;98250;-73
2023/12/15 05:22:02;;;;;;;37.08;19.33;;;;;;;;;;4971574;28;99378;-71
2023/12/15 05:24:31;;;;;;;31.90;16.40;;;;;;;;;;4967801;28;98491;-72
2023/12/15 05:26:58;;;;;;;29.70;16.27;;;;;;;;;;4968985;28;99678;-73
2023/12/15 05:29:25;;;;;;;44.20;16.90;;;;;;;;;;4968394;28;100229;-72
2023/12/15 05:31:51;;;;;;;33.13;16.75;;;;;;;;;;4968331;28;98358;-73
2023/12/15 05:34:18;;;;;;;29.48;17.73;;;;;;;;;;4968488;28;99452;-73
2023/12/15 05:36:44;;;;;;;31.13;16.30;;;;;;;;;;4969015;28;99119;-72
2023/12/15 05:39:14;;;;;;;34.45;15.90;;;;;;;;;;4968077;28;98451;-72
2023/12/15 05:41:41;;;;;;;34.60;16.75;;;;;;;;;;4968890;28;99696;-72
2023/12/15 05:44:10;;;;;;;29.65;14.98;;;;;;;;;;4970302;28;98989;-72
2023/12/15 05:46:41;;;;;;;32.05;14.63;;;;;;;;;;4967948;28;99722;-73
2023/12/15 05:49:08;;;;;;;40.42;16.65;;;;;;;;;;4968014;28;100084;-73
2023/12/15 05:51:35;;;;;;;23.25;14.75;;;;;;;;;;4967472;28;98958;-72
2023/12/15 05:54:01;;;;;;;27.85;15.07;;;;;;;;;;4968708;28;98587;-72
2023/12/15 05:56:29;;;;;;;32.17;14.07;;;;;;;;;;4968262;28;100212;-72
2023/12/15 05:58:56;;;;;;;30.73;13.68;;;;;;;;;;4967430;28;98260;-72
2023/12/15 06:01:23;;;;;;;30.30;12.93;;;;;;;;;;4968113;28;98658;-72
2023/12/15 06:03:49;;;;;;;26.27;12.32;;;;;;;;;;4971620;28;100258;-72
2023/12/15 06:06:15;;;;;;;25.40;13.18;;;;;;;;;;4967113;28;98641;-72
2023/12/15 06:08:42;;;;;;;22.67;12.00;;;;;;;;;;4968284;28;99143;-72
2023/12/15 06:11:08;;;;;;;26.92;12.20;;;;;;;;;;4965351;28;98939;-72
2023/12/15 06:13:36;;;;;;;30.35;12.07;;;;;;;;;;4967291;28;99427;-72
2023/12/15 06:16:02;;;;;;;30.38;13.20;;;;;;;;;;4968326;28;100104;-72
2023/12/15 06:18:29;;;;;;;30.65;12.15;;;;;;;;;;4968222;28;98222;-74
2023/12/15 06:20:56;;;;;;;25.55;11.55;;;;;;;;;;4967685;28;99413;-72
2023/12/15 06:23:22;;;;;;;28.67;11.88;;;;;;;;;;4967767;28;99925;-72
2023/12/15 06:25:49;;;;;;;25.52;12.27;;;;;;;;;;4971496;28;98250;-72
2023/12/15 06:28:15;;;;;;;32.95;12.82;;;;;;;;;;4967200;28;100095;-71
2023/12/15 06:30:41;;;;;;;25.30;11.25;;;;;;;;;;4968280;28;98938;-72
2023/12/15 06:33:08;;;;;;;33.83;11.50;;;;;;;;;;4967669;28;99307;-72
2023/12/15 06:35:35;;;;;;;31.30;11.57;;;;;;;;;;4966409;28;100072;-72
2023/12/15 06:38:01;;;;;;;34.13;11.48;;;;;;;;;;4967665;28;98238;-73
2023/12/15 06:40:28;;;;;;;31.17;11.43;;;;;;;;;;4967128;28;99557;-72
2023/12/15 06:42:54;;;;;;;21.88;10.68;;;;;;;;;;4967655;28;99950;-72
2023/12/15 06:45:20;;;;;;;26.30;10.70;;;;;;;;;;4967670;28;98223;-72
2023/12/15 06:47:47;;;;;;;31.52;10.68;;;;;;;;;;4970160;28;99686;-72
2023/12/15 06:50:13;;;;;;;18.02;9.35;;;;;;;;;;4967310;28;98888;-71
2023/12/15 06:52:40;;;;;;;30.33;10.45;;;;;;;;;;4968067;28;99369;-72
2023/12/15 06:55:07;;;;;;;25.80;10.45;;;;;;;;;;4966490;28;99994;-73
2023/12/15 06:57:33;;;;;;;25.08;11.27;;;;;;;;;;4966406;28;98851;-71
2023/12/15 07:00:00;;;;;;;19.92;8.88;;;;;;;;;;4966907;28;99555;-72
2023/12/15 07:02:27;;;;;;;33.20;10.38;;;;;;;;;;4966382;28;99845;-72
2023/12/15 07:04:53;;;;;;;32.20;9.85;;;;;;;;;;4967675;28;98302;-73
2023/12/15 07:07:21;;;;;;;23.90;10.15;;;;;;;;;;4967319;28;99880;-71
2023/12/15 07:09:47;;;;;;;18.83;11.27;;;;;;;;;;4969854;28;98806;-71
2023/12/15 07:12:13;;;;;;;17.67;9.75;;;;;;;;;;4967195;28;99537;-71
2023/12/15 07:14:40;;;;;;;18.40;9.05;;;;;;;;;;4966988;28;99293;-72
2023/12/15 07:17:06;;;;;;;26.00;9.43;;;;;;;;;;4966510;28;98212;-71
2023/12/15 07:19:33;;;;;;;29.85;9.75;;;;;;;;;;4967459;28;99778;-71
2023/12/15 07:21:59;;;;;;;21.00;9.73;;;;;;;;;;4966727;28;99199;-71
2023/12/15 07:24:26;;;;;;;23.17;9.15;;;;;;;;;;4964947;28;98721;-72
2023/12/15 07:26:52;;;;;;;22.25;9.85;;;;;;;;;;4967265;28;99345;-72
2023/12/15 07:29:21;;;;;;;25.17;9.60;;;;;;;;;;4966423;28;100056;-73
2023/12/15 07:31:48;;;;;;;31.20;9.38;;;;;;;;;;4969557;28;98229;-72
2023/12/15 07:34:15;;;;;;;25.10;9.77;;;;;;;;;;4966699;28;99943;-72
2023/12/15 07:36:42;;;;;;;17.42;9.30;;;;;;;;;;4966528;28;98886;-72
2023/12/15 07:39:09;;;;;;;24.17;8.82;;;;;;;;;;4966832;28;99584;-73
2023/12/15 07:41:37;;;;;;;19.08;8.63;;;;;;;;;;4967136;28;99840;-73
2023/12/15 07:44:04;;;;;;;21.00;9.00;;;;;;;;;;4965929;28;98645;-72
2023/12/15 07:46:30;;;;;;;21.75;8.80;;;;;;;;;;4966900;28;99057;-73
2023/12/15 07:48:56;;;;;;;24.88;8.60;;;;;;;;;;4966816;28;99615;-71
2023/12/15 07:51:23;;;;;;;34.50;10.85;;;;;;;;;;4969508;28;98290;-71
2023/12/15 07:53:49;;;;;;;24.40;8.80;;;;;;;;;;4966826;28;99931;-72
2023/12/15 07:56:20;;;;;;;33.58;9.50;;;;;;;;;;4967066;28;98362;-72
2023/12/15 07:58:49;;;;;;;28.42;8.80;;;;;;;;;;4966227;28;100004;-72
2023/12/15 08:01:17;;;;;;;20.55;8.98;;;;;;;;;;4965780;28;99185;-72
2023/12/15 08:03:44;;;;;;;20.05;8.57;;;;;;;;;;4966261;28;98308;-71
2023/12/15 08:06:11;;;;;;;25.10;8.13;;;;;;;;;;4966071;28;99693;-72
2023/12/15 08:08:38;;;;;;;24.48;7.43;;;;;;;;;;4966668;28;99179;-72
2023/12/15 08:11:05;;;;;;;22.52;7.03;;;;;;;;;;4966251;28;98200;-72
2023/12/15 08:13:32;;;;;;;28.42;8.30;;;;;;;;;;4968473;28;99196;-72
2023/12/15 08:15:58;;;;;;;18.55;7.90;;;;;;;;;;4966398;28;98326;-72
2023/12/15 08:18:25;;;;;;;16.42;7.50;;;;;;;;;;4966252;28;98766;-72
2023/12/15 08:20:51;;;;;;;18.02;8.68;;;;;;;;;;4965668;28;99996;-72
2023/12/15 08:23:18;;;;;;;15.95;7.47;;;;;;;;;;4966392;28;98181;-71
2023/12/15 08:25:44;;;;;;;21.73;8.27;;;;;;;;;;4966398;28;98481;-72
2023/12/15 08:28:11;;;;;;;18.15;8.70;;;;;;;;;;4965513;28;98992;-73
2023/12/15 08:30:38;;;;;;;19.80;7.80;;;;;;;;;;4966592;28;98264;-72
2023/12/15 08:33:05;;;;;;;23.92;8.30;;;;;;;;;;4966016;28;99253;-72
2023/12/15 08:35:31;;;;;;;17.90;7.75;;;;;;;;;;4972457;28;100020;-72
2023/12/15 08:37:58;;;;;;;20.15;6.32;;;;;;;;;;4969002;28;98836;-73
2023/12/15 08:40:25;;;;;;;21.92;7.50;;;;;;;;;;4968587;28;100079;-72
2023/12/15 08:42:51;;;;;;;18.95;7.00;;;;;;;;;;4969970;28;98270;-72
2023/12/15 08:45:17;;;;;;;25.98;7.88;;;;;;;;;;4969924;28;98743;-73
2023/12/15 08:47:44;;;;;;;13.68;6.80;;;;;;;;;;4969047;28;100036;-73
2023/12/15 08:50:11;;;;;;;16.20;6.15;;;;;;;;;;4969046;28;98320;-73
2023/12/15 08:52:37;;;;;;;12.25;7.03;;;;;;;;;;4968329;28;99747;-73
2023/12/15 08:55:04;;;;;;;17.90;6.95;;;;;;;;;;4967997;28;99091;-72
2023/12/15 08:57:31;;;;;;;20.40;6.63;;;;;;;;;;4972886;28;98222;-72
2023/12/15 08:59:58;;;;;;;17.95;6.80;;;;;;;;;;4969176;28;98148;-72
2023/12/15 09:02:25;;;;;;;13.25;7.03;;;;;;;;;;4967657;28;98465;-73
2023/12/15 09:04:52;;;;;;;18.60;6.63;;;;;;;;;;4969205;28;99012;-72
2023/12/15 09:07:29;;;;;;;22.55;6.80;;;;;;;;;;4968917;28;101005;-72
2023/12/15 09:09:56;;;;;;;18.83;6.97;;;;;;;;;;4968750;28;98568;-72
2023/12/15 09:12:22;;;;;;;21.75;6.75;;;;;;;;;;4968480;28;99534;-72
2023/12/15 09:14:48;;;;;;;21.05;7.28;;;;;;;;;;4968885;28;98933;-72
2023/12/15 09:17:15;;;;;;;22.58;7.50;;;;;;;;;;4968089;28;98677;-73
2023/12/15 09:19:42;;;;;;;16.02;6.28;;;;;;;;;;4972385;28;98788;-72
2023/12/15 09:22:09;;;;;;;14.82;6.43;;;;;;;;;;4968618;28;98736;-71
2023/12/15 09:24:35;;;;;;;19.55;6.05;;;;;;;;;;4968697;28;99916;-72
2023/12/15 09:27:02;;;;;;;16.60;5.93;;;;;;;;;;4968149;28;100599;-72
2023/12/15 09:29:30;;;;;;;15.82;5.05;;;;;;;;;;4968433;28;98290;-73
2023/12/15 09:31:56;;;;;;;29.95;6.70;;;;;;;;;;4969056;28;99990;-71
2023/12/15 09:34:23;;;;;;;24.50;6.45;;;;;;;;;;4967971;28;99040;-72
2023/12/15 09:36:50;;;;;;;20.42;5.45;;;;;;;;;;4967923;28;98395;-72
2023/12/15 09:39:16;;;;;;;25.70;6.72;;;;;;;;;;4968514;28;99452;-73
2023/12/15 09:41:43;;;;;;;16.58;5.07;;;;;;;;;;4971792;28;99950;-73
2023/12/15 09:44:09;;;;;;;12.05;5.38;;;;;;;;;;4967867;28;98538;-73
2023/12/15 09:46:36;;;;;;;20.05;5.30;;;;;;;;;;4967765;28;99025;-73
2023/12/15 09:49:02;;;;;;;23.80;5.85;;;;;;;;;;4968567;28;98275;-72
2023/12/15 09:51:30;;;;;;;16.85;5.60;;;;;;;;;;4967168;28;100945;-72
2023/12/15 09:53:56;;;;;;;24.75;5.63;;;;;;;;;;4968471;28;99120;-72
2023/12/15 09:56:23;;;;;;;16.83;4.57;;;;;;;;;;4967916;28;98267;-72
2023/12/15 09:58:49;;;;;;;15.93;5.65;;;;;;;;;;4967841;28;99520;-72
2023/12/15 10:01:16;;;;;;;24.98;6.40;;;;;;;;;;4971411;28;100215;-72
2023/12/15 10:03:43;;;;;;;27.42;6.63;;;;;;;;;;4968164;28;99566;-72
2023/12/15 10:06:09;;;;;;;16.05;5.70;;;;;;;;;;4967310;28;98914;-72
2023/12/15 10:08:45;;;;;;;23.88;5.05;;;;;;;;;;4968640;28;98662;-72
2023/12/15 10:11:28;;;;;;;22.58;4.60;;;;;;;;;;4967543;28;98482;-73
2023/12/15 10:13:55;;;;;;;26.90;5.70;;;;;;;;;;4967580;28;99105;-72
2023/12/15 10:16:21;;;;;;;13.73;4.68;;;;;;;;;;4967287;28;98021;-72
2023/12/15 10:18:48;;;;;;;14.30;5.38;;;;;;;;;;4967574;28;99657;-72
2023/12/15 10:21:14;;;;;;;28.17;5.47;;;;;;;;;;4967778;28;99924;-72
2023/12/15 10:23:41;;;;;;;15.90;4.13;;;;;;;;;;4971395;28;98252;-73
2023/12/15 10:26:07;;;;;;;22.13;5.43;;;;;;;;;;4966870;28;99209;-72
2023/12/15 10:28:38;;;;;;;22.67;4.85;;;;;;;;;;4967631;28;98454;-72
2023/12/15 10:31:05;;;;;;;14.10;4.05;;;;;;;;;;4967231;28;99353;-72
2023/12/15 10:33:35;;;;;;;14.93;3.92;;;;;;;;;;4947717;28;101537;-72
2023/12/15 10:36:06;;;;;;;16.52;4.80;;;;;;;;;;4948455;28;98325;-73
2023/12/15 10:38:32;;;;;;;28.25;5.53;;;;;;;;;;4948714;28;98612;-72
2023/12/15 10:40:59;;;;;;;14.80;4.82;;;;;;;;;;4947280;28;99719;-72
2023/12/15 10:43:28;;;;;;;18.23;4.35;;;;;;;;;;4948386;28;98308;-74
2023/12/15 10:45:55;;;;;;;16.73;4.55;;;;;;;;;;4957374;28;98352;-73
2023/12/15 10:48:24;;;;;;;16.02;4.50;;;;;;;;;;4966896;28;98502;-73
2023/12/15 10:50:52;;;;;;;19.33;4.47;;;;;;;;;;4967748;28;98370;-72
2023/12/15 10:53:19;;;;;;;15.70;4.07;;;;;;;;;;4967170;28;100110;-73
2023/12/15 10:55:46;;;;;;;25.63;4.72;;;;;;;;;;4966788;28;98287;-72
2023/12/15 10:58:13;;;;;;;21.48;4.57;;;;;;;;;;4967631;28;99173;-72
2023/12/15 11:00:40;;;;;;;24.83;5.78;;;;;;;;;;4966124;28;99786;-73
2023/12/15 11:03:10;;;;;;;12.70;3.83;;;;;;;;;;4967131;28;98790;-72
2023/12/15 11:05:37;;;;;;;13.63;3.75;;;;;;;;;;4966548;28;99522;-71
2023/12/15 11:08:06;;;;;;;20.17;4.13;;;;;;;;;;4969645;28;99095;-74
2023/12/15 11:10:34;;;;;;;19.52;4.28;;;;;;;;;;4967810;28;99371;-73
2023/12/15 11:13:01;;;;;;;12.13;3.78;;;;;;;;;;4967351;28;98774;-73
2023/12/15 11:15:28;;;;;;;14.50;4.13;;;;;;;;;;4966357;28;98345;-73
2023/12/15 11:17:57;;;;;;;13.20;4.53;;;;;;;;;;4966963;28;98668;-72
2023/12/15 11:20:25;;;;;;;14.75;3.80;;;;;;;;;;4966691;28;100007;-73
2023/12/15 11:22:53;;;;;;;17.73;4.68;;;;;;;;;;4966714;28;98290;-72
2023/12/15 11:25:21;;;;;;;17.02;4.57;;;;;;;;;;4966827;28;98562;-72
2023/12/15 11:27:58;;;;;;;15.07;3.70;;;;;;;;;;4967150;28;100023;-72
2023/12/15 11:30:28;;;;;;;20.10;4.32;;;;;;;;;;4969099;28;98239;-78
2023/12/15 11:32:55;;;;;;;19.80;3.55;;;;;;;;;;4964108;28;100048;-74
2023/12/15 11:35:30;;;;;;;12.50;3.75;;;;;;;;;;4963937;28;98983;-72
2023/12/15 11:37:57;;;;;;;18.10;4.20;;;;;;;;;;4960963;28;99677;-74
2023/12/15 11:40:29;;;;;;;16.17;3.38;;;;;;;;;;4963397;28;99433;-73
2023/12/15 11:42:58;;;;;;;17.70;3.17;;;;;;;;;;4970099;28;99017;-73
2023/12/15 11:45:26;;;;;;;16.38;4.15;;;;;;;;;;4962452;28;100228;-74
2023/12/15 11:47:53;;;;;;;16.15;3.70;;;;;;;;;;4961701;28;98987;-74
2023/12/15 11:50:21;;;;;;;19.80;3.60;;;;;;;;;;4955996;28;98283;-72
2023/12/15 11:52:49;;;;;;;18.83;3.50;;;;;;;;;;4959951;28;99775;-72
2023/12/15 11:55:17;;;;;;;13.68;3.13;;;;;;;;;;4959817;28;99766;-71
2023/12/15 11:57:43;;;;;;;10.18;3.42;;;;;;;;;;4958000;28;99096;-71
2023/12/15 12:00:13;;;;;;;11.23;2.95;;;;;;;;;;4957516;28;98963;-71
2023/12/15 12:02:41;;;;;;;13.05;3.45;;;;;;;;;;4956418;28;98253;-71
2023/12/15 12:05:08;;;;;;;19.48;3.67;;;;;;;;;;4965425;28;99900;-72
2023/12/15 12:07:35;;;;;;;10.93;2.80;;;;;;;;;;4966939;28;100055;-72
2023/12/15 12:10:02;;;;;;;19.38;3.28;;;;;;;;;;4969099;28;98154;-71
2023/12/15 12:12:29;;;;;;;7.70;2.25;;;;;;;;;;4973056;28;99907;-72
2023/12/15 12:15:01;;;;;;;15.38;3.05;;;;;;;;;;4970250;28;98398;-72
2023/12/15 12:17:27;;;;;;;11.37;3.50;;;;;;;;;;4970009;28;99683;-74
2023/12/15 12:19:54;;;;;;;7.43;2.75;;;;;;;;;;4968642;28;100068;-72
2023/12/15 12:22:20;;;;;;;9.45;2.58;;;;;;;;;;4969753;28;98223;-71
2023/12/15 12:24:47;;;;;;;13.30;3.30;;;;;;;;;;4953243;28;99677;-71
2023/12/15 12:27:13;;;;;;;11.75;2.33;;;;;;;;;;4949988;28;99037;-71
2023/12/15 12:29:40;;;;;;;16.02;3.83;;;;;;;;;;4950588;28;98312;-71
2023/12/15 12:32:06;;;;;;;5.03;2.55;;;;;;;;;;4949494;28;99516;-73
2023/12/15 12:34:33;;;;;;;8.30;3.05;;;;;;;;;;4953444;28;100118;-74
2023/12/15 12:37:00;;;;;;;15.48;2.95;;;;;;;;;;4967644;28;99980;-72
2023/12/15 12:39:27;;;;;;;6.65;2.72;;;;;;;;;;4985938;28;99982;-73
2023/12/15 12:41:54;;;;;;;10.75;2.45;;;;;;;;;;4976205;28;98172;-72
2023/12/15 12:44:22;;;;;;;14.38;3.38;;;;;;;;;;4961273;28;99606;-71
2023/12/15 12:46:49;;;;;;;11.88;3.15;;;;;;;;;;4966541;28;99342;-71
2023/12/15 12:49:17;;;;;;;15.55;2.88;;;;;;;;;;4963454;28;98641;-73
2023/12/15 12:51:54;;;;;;;13.30;3.00;;;;;;;;;;4972400;28;99678;-72
2023/12/15 12:54:22;;;;;;;14.98;3.67;;;;;;;;;;4956318;28;99050;-71
2023/12/15 12:56:50;;;;;;;7.75;2.50;;;;;;;;;;4962835;28;99008;-73
2023/12/15 12:59:26;;;;;;;12.63;3.28;;;;;;;;;;4964771;28;99831;-71
2023/12/15 13:01:53;;;;;;;12.50;2.17;;;;;;;;;;4964285;28;99334;-73
2023/12/15 13:04:26;;;;;;;15.85;2.47;;;;;;;;;;4965152;28;100052;-71
2023/12/15 13:06:52;;;;;;;12.80;2.90;;;;;;;;;;4967743;28;100006;-72
2023/12/15 13:09:21;;;;;;;9.07;2.42;;;;;;;;;;4964670;28;99151;-72
2023/12/15 13:11:48;;;;;;;7.63;2.53;;;;;;;;;;4965205;28;100125;-72
2023/12/15 13:14:15;;;;;;;15.52;3.38;;;;;;;;;;4960644;28;100411;-72
2023/12/15 13:16:43;;;;;;;5.35;1.98;;;;;;;;;;4965668;28;98485;-71
2023/12/15 13:19:10;;;;;;;13.70;2.67;;;;;;;;;;4962637;28;101410;-73
2023/12/15 13:21:37;;;;;;;13.43;3.05;;;;;;;;;;4964696;28;99830;-73
2023/12/15 13:24:08;;;;;;;8.83;2.57;;;;;;;;;;4963085;28;99504;-71
2023/12/15 13:26:38;;;;;;;17.55;2.95;;;;;;;;;;4956983;28;100237;-72
2023/12/15 13:29:06;;;;;;;6.75;3.33;;;;;;;;;;4962341;28;99711;-72
2023/12/15 13:31:33;;;;;;;14.13;2.17;;;;;;;;;;4954913;28;98627;-73
2023/12/15 13:34:01;;;;;;;5.55;2.22;;;;;;;;;;4962397;28;99935;-71
2023/12/15 13:36:27;;;;;;;6.00;1.85;;;;;;;;;;4954513;28;98566;-71
2023/12/15 13:38:54;;;;;;;6.45;2.17;;;;;;;;;;4958359;28;99957;-71
2023/12/15 13:41:21;;;;;;;9.90;2.67;;;;;;;;;;4957332;28;98933;-71
2023/12/15 13:43:49;;;;;;;10.73;3.28;;;;;;;;;;4963396;28;99827;-72
2023/12/15 13:46:19;;;;;;;8.43;2.13;;;;;;;;;;4955775;28;99435;-71
2023/12/15 13:48:50;;;;;;;7.38;2.15;;;;;;;;;;4967381;28;98182;-72
2023/12/15 13:51:18;;;;;;;11.95;4.05;;;;;;;;;;4958517;28;98567;-71
2023/12/15 13:53:45;;;;;;;12.38;2.22;;;;;;;;;;4955435;28;99831;-71
2023/12/15 13:56:12;;;;;;;11.73;2.75;;;;;;;;;;4962659;28;99555;-73
2023/12/15 13:58:39;;;;;;;11.80;2.67;;;;;;;;;;4966119;28;98857;-73
2023/12/15 14:01:06;;;;;;;19.23;2.20;;;;;;;;;;4950802;28;98789;-74
2023/12/15 14:03:35;;;;;;;14.10;2.40;;;;;;;;;;4965323;28;98291;-75
2023/12/15 14:06:04;;;;;;;8.05;2.03;;;;;;;;;;4967153;28;100462;-73
2023/12/15 14:08:31;;;;;;;13.35;2.75;;;;;;;;;;4954066;28;98723;-71
2023/12/15 14:10:58;;;;;;;13.40;2.67;;;;;;;;;;4947746;28;98901;-70
2023/12/15 14:13:30;;;;;;;16.27;2.88;;;;;;;;;;4962141;28;98819;-70
2023/12/15 14:15:58;;;;;;;19.17;3.50;;;;;;;;;;4969371;28;98333;-72
2023/12/15 14:18:38;;;;;;;11.50;2.95;;;;;;;;;;4956766;28;98667;-72
2023/12/15 14:21:05;;;;;;;7.38;2.38;;;;;;;;;;4967899;28;100182;-71
2023/12/15 14:23:32;;;;;;;12.65;3.20;;;;;;;;;;4969121;28;98469;-71